Go Pro

RB Global (RBA) Institutional Ownership

RB Global logo
$83.19 +0.29 (+0.35%)
As of 09/3/2026 03:58 PM Eastern

Institutional Ownership Changes (13F Filings) for RB Global (NYSE:RBA)

Current
Institutional Ownership
Percentage
95.37%
Number of
Institutional Buyers
(last 12 months)
292
Total
Institutional Inflows
(last 12 months)
$6.42B
Number of
Institutional Sellers
(last 12 months)
219
Total
Institutional Outflows
(last 12 months)
$2.00B
Get RBA Insider Trade Alerts

Want to know when executives and insiders are buying or selling RB Global stock? Sign up for InsiderTrades.com's daily newsletter to get the latest insider transactions delivered to your inbox daily.

SMS is currently available in Australia, Belgium, Canada, France, Germany, Ireland, Italy, New Zealand, the Netherlands, Singapore, South Africa, Spain, Switzerland, the United Kingdom, and the United States. By entering your phone number and clicking the sign-up button, you agree to receive periodic text messages from MarketBeat at the phone number you submitted, including texts that may be sent using an automatic telephone dialing system. Message and data rates may apply. Message frequency will vary. Messages will consist of stock alerts, news stories, and partner advertisements/offers. Consent is not a condition of the purchase of any goods or services. Text HELP for help/customer support. Unsubscribe at any time by replying "STOP" to any text message that you receive from MarketBeat or by visiting our mailing preferences page. Read our full terms of service and privacy policy.
Skip Chart & View Institutional Buying and Selling Data

RBA Institutional Buying and Selling by Quarter

RB Global Major Shareholders & Ownership History

Reporting DateMajor Shareholder NameShares HeldMarket Value% of PortfolioQuarterly Change in SharesOwnership in CompanyDetails
8/27/2026 Corient Private Wealth LP23,987$2.79M0.0%+15.3%0.013%
8/26/2026 Amundi326,350$38.00M0.0%+3.6%0.176%
8/26/2026 HighTower Advisors LLC9,462$1.10M0.0%-24.4%0.005%
8/24/2026 California State Teachers Retirement System305,681$35.60M0.0%+2,908.7%0.165%
8/23/2026 Wedmont Private Capital2,489$269K0.0%+17.6%0.001%
8/23/2026 Drystone LLC33,000$3.84M3.2%-2.4%0.018%
8/23/2026 HB Wealth Management LLC3,691$430K0.0%+15.4%0.002%
8/22/2026 AlphaGrep UK Ltd2,349$274K0.1%N/A0.001%
8/22/2026 Syon Capital LLC2,371$276K0.0%-13.5%0.001%
8/22/2026 TD Waterhouse Canada Inc.244,362$27.67M0.1%-0.9%0.132%
8/22/2026 Kampmann Melissa S.23,902$2.78M2.1%-5.0%0.013%
8/22/2026 Concurrent Investment Advisors LLC10,880$1.27M0.0%+38.1%0.006%
8/21/2026 AXQ Capital LP6,210$723K0.1%-66.7%0.003%
8/21/2026 Nykredit A S63,889$7.44M0.0%N/A0.035%
8/20/2026 QV Investors Inc.292,372$34.03M2.6%-4.8%0.158%
8/20/2026 Moore Capital Management LP32,517$3.79M0.1%-77.8%0.018%
8/20/2026 Benjamin Edwards Inc.14,626$1.70M0.0%-17.7%0.008%
8/20/2026 Alyeska Investment Group L.P.209,883$24.44M0.1%-36.2%0.113%
8/20/2026 Flputnam Investment Management Co.2,206$257K0.0%N/A0.001%
8/20/2026 Northwestern Mutual Wealth Management Co.2,513$293K0.0%+50.3%0.001%
8/19/2026 UBS AM a distinct business unit of UBS ASSET MANAGEMENT AMERICAS LLC243,470$28.35M0.0%-1.1%0.132%
8/19/2026 Royal London Asset Management Ltd.7,988$930K0.0%-11.8%0.004%
8/19/2026 Wellington Management Group LLP1,734,133$201.81M0.0%N/A0.937%
8/19/2026 Archer Investment Corp2,437$284K0.0%N/A0.001%
8/18/2026 United Capital Financial Advisors LLC31,074$3.62M0.0%N/A0.017%
8/18/2026 Formula Growth Ltd.27,604$3.21M1.1%N/A0.015%
8/18/2026Jefferies Financial Group Inc.1,744$203K0.0%N/A0.001%
8/18/2026 Public Employees Retirement System of Ohio207,327$24.13M0.1%N/A0.112%
8/17/2026 Capstone Investment Advisors LLC10,980$1.28M0.0%N/A0.006%
8/17/2026 Corient Private Wealth LP24,050$2.80M0.0%N/A0.013%
8/17/2026 Bank of America Corp DE1,473,773$171.62M0.0%N/A0.796%
8/15/2026 Freestone Grove Partners LP139,583$16.25M0.1%N/A0.075%
8/15/2026 Caisse de depot et placement du Quebec1,577,664$183.65M0.3%N/A0.852%
8/15/2026 Man Group plc52,776$6.15M0.0%N/A0.029%
8/15/2026 Invst LLC10,754$1.25M0.1%N/A0.006%
8/15/2026 Polar Asset Management Partners Inc.3,834$446K0.0%N/A0.002%
8/15/2026 Jupiter Topco LLC4,421,743$514.87M0.2%N/A2.388%
8/14/2026 Palisade Capital Management LP27,132$3.16M0.1%N/A0.015%
8/14/2026 Canada Pension Plan Investment Board6,000$699K0.0%N/A0.003%
8/14/2026 Legal & General Group Plc971,186$113.03M0.0%N/A0.525%
Three companies about to leapfrog Nvidia [And transform the entire industry] (Ad)

AI data centers have a power problem nobody likes to talk about. A single rack of computers can now use more electricity than an entire office building. One new chip, which looks more like a piece of plywood than a processor, delivers similar performance on a fraction of the power. Tech investing veteran George Gilder says that efficiency gap could decide who wins the next stage of AI. Gilder has identified three companies positioned around this power breakthrough, calling them the Trillion Dollar Triangle.tc pixel

See the three companies behind this AI power breakthrough now
8/14/2026 The Manufacturers Life Insurance Company1,474,464$171.34M0.1%N/A0.796%
8/13/2026 Cibc World Market Inc.147,375$17.14M0.0%N/A0.080%
8/13/2026 OMERS ADMINISTRATION Corp117,353$13.66M0.1%N/A0.063%
8/13/2026 Osmosis Investment Management UK Ltd7,074$824K0.0%N/A0.004%
8/13/2026 Sanctuary Advisors LLC6,130$714K0.0%N/A0.003%
8/13/2026 Connor Clark & Lunn Investment Management Ltd.1,315,495$152.99M0.3%N/A0.711%
8/13/2026 PEAK6 LLC48,448$5.64M0.0%N/A0.026%
8/13/2026 Meiji Yasuda Asset Management Co Ltd.4,312$502K0.0%N/A0.002%
8/13/2026 Bank of Nova Scotia214,793$25.00M0.0%N/A0.116%
8/12/2026 Elevation Point Wealth Partners LLC2,089$243K0.0%N/A0.001%
8/12/2026 Commerce Bank25,921$3.02M0.0%N/A0.014%
8/12/2026 Northwestern Mutual Wealth Management Co.2,513$293K0.0%N/A0.001%
8/12/2026 Landscape Capital Management L.L.C.21,333$2.48M0.2%N/A0.012%
8/12/2026 Korea Investment CORP138,345$16.10M0.0%N/A0.075%
8/12/2026 Callan Family Office LLC5,050$588K0.0%N/A0.003%
8/11/2026 Caldwell Investment Management Ltd.9,900$1.15M0.8%N/A0.005%
8/11/2026 Allworth Financial LP856$100K0.0%N/A0.000%
8/11/2026 Vise Technologies Inc.7,160$834K0.0%N/A0.004%
8/10/2026 Addison Advisors LLC222$26K0.0%N/A0.000%
8/10/2026 NewEdge Wealth LLC4,013$467K0.0%N/A0.002%
8/7/2026 Cornerstone Advisors LLC37,153$4.33M0.1%N/A0.020%
8/7/2026 K.J. Harrison & Partners Inc77,088$8.96M1.3%N/A0.042%
8/7/2026 MidFirst Bank68,523$7.98M0.6%N/A0.037%
8/7/2026 BlackRock Inc.15,595,183$1.82B0.0%N/A8.423%
8/7/2026 Deutsche Bank AG375,047$43.67M0.0%N/A0.203%
8/7/2026 Rice Hall James & Associates LLC72,899$8.49M0.4%N/A0.039%
8/6/2026 J.Safra Asset Management Corp279$32K0.0%N/A0.000%
8/6/2026 Flputnam Investment Management Co.2,206$257K0.0%N/A0.001%
8/6/2026 Global Retirement Partners LLC2,098$244K0.0%N/A0.001%
8/6/2026 Alberta Investment Management Corp50,431$5.87M0.0%N/A0.027%
8/6/2026 Bank of New York Mellon Corp953,377$111.02M0.0%N/A0.515%
8/6/2026 State of Wyoming2,249$262K0.0%N/A0.001%
8/3/2026 Oppenheimer Asset Management Inc.151,054$17.59M0.2%N/A0.082%
8/3/2026 Hardy Reed LLC2,046$238K0.0%N/A0.001%
7/10/2026 Diversified Management Inc.4,000$466K0.1%-44.0%0.002%
7/9/2026 Legacy Wealth Asset Management LLC26,343$3.07M0.7%+127.3%0.014%
7/9/2026 Oliver Luxxe Assets LLC43,323$5.05M0.7%-0.7%0.023%
7/8/2026 Gradient Investments LLC6,842$797K0.0%N/A0.004%
7/8/2026 Trust Point Inc.10,002$1.17M0.1%-23.0%0.005%
7/8/2026 PensionDanmark Pensionsforsikringsaktieselskab28,340$3.30M0.0%+12.3%0.015%
7/8/2026 Assenagon Asset Management S.A.6,961$810K0.0%+7.2%0.004%
7/8/2026 Armstrong Henry H Associates Inc.40,909$4.76M0.5%+51.3%0.022%
7/7/2026 Dynamic Advisor Solutions LLC6,495$756K0.0%+3.5%0.003%
7/7/2026 GAMMA Investing LLC6,932$807K0.0%+25.5%0.004%
7/2/2026 Versant Capital Management Inc3,073$358K0.0%+16.7%0.002%
7/2/2026 CX Institutional11,324$1.32M0.0%+3.3%0.006%
6/3/2026 DV Trading LLC2,458$236K0.0%+251.1%0.001%
6/3/2026 NewEdge Advisors LLC5,431$521K0.0%+10.0%0.003%
6/1/2026 Integrated Investment Consultants LLC2,966$284K0.1%-3.3%0.002%
5/26/2026 Axiom Investment Management LLC797$76K0.1%N/A0.000%
Major Buy Alert Issued for September 30th (Ad)

Keith Kaplan has invested $17 million into his own AI research tools, building a platform now used by 180,000 people worldwide. His system has flagged a handful of stocks worth watching ahead of September 30th. See which stocks his AI research platform is flagging right now.tc pixel

See which stocks his AI research platform is flagging now
5/22/2026 Segall Bryant & Hamill LLC2,950$302K0.0%N/A0.002%
5/19/2026 Bank of America Corp DE1,452,438$139.22M0.0%+7.8%0.781%
5/19/2026Janus Henderson Group PLC4,371,610$418.88M0.2%+7.0%2.351%
5/18/2026 Amundi315,134$30.21M0.0%+29.3%0.169%
5/18/2026 EverSource Wealth Advisors LLC68,084$6.53M0.2%+0.6%0.037%
5/18/2026 California State Teachers Retirement System10,160$974K0.0%-11.9%0.005%
5/18/2026 Royal Bank of Canada5,043,648$483.43M0.1%+13.1%2.713%
5/18/2026 EdgePoint Investment Group Inc.8,812,865$845.34M6.8%+14.4%4.740%
5/16/2026 The Manufacturers Life Insurance Company1,510,029$144.69M0.1%-37.3%0.812%
5/16/2026 Hawk Ridge Capital Management LP396,700$38.02M1.4%N/A0.213%


RBA Institutional Ownership - Frequently Asked Questions

During the previous two years, 534 institutional investors and hedge funds held shares of RB Global. The most heavily invested institutionals were Vanguard Group Inc. ($2.60B), BlackRock Inc. ($1.82B), Massachusetts Financial Services Co. MA ($1.12B), FIL Ltd ($889.68M), EdgePoint Investment Group Inc. ($845.34M), State Street Corp ($647.12M), and Jupiter Topco LLC ($514.87M).Learn more on RB Global's institutional investors.

95.37% of RB Global's stock is owned by institutional investors. Learn more on RBA's institutional investor holdings.

Of the 459 institutional investors that purchased RB Global's stock in the last 24 months, the following investors and hedge funds have bought the highest volume of shares: BlackRock Inc. ($15.60M), Norges Bank ($6.99M), Jupiter Topco LLC ($4.42M), T. Rowe Price Investment Management Inc. ($4.08M), Raymond James Financial Inc. ($2.95M), The Manufacturers Life Insurance Company ($2.37M), and Lazard Asset Management LLC ($2.19M).

Institutional investors have bought a total of 58,197,532 shares in the last 24 months. This purchase volume represents approximately $6.42B in transactions.

Of the 219 institutional investors that sold RB Global's stock in the last 24 months, the following investors and hedge funds have sold the highest volume of shares: Independent Franchise Partners LLP ($4.55M), Vontobel Holding Ltd. ($2.64M), FIL Ltd ($1.30M), Alyeska Investment Group L.P. ($930.99K), The Manufacturers Life Insurance Company ($900.11K), ArrowMark Colorado Holdings LLC ($637.12K), and Raymond James Financial Inc. ($576.06K).

Institutional investors have sold a total of 19,018,932 shares in the last 24 months. This volume of shares sold represents approximately $2.00B in transactions.



Institutional ownership data for NYSE:RBA is compiled from quarterly 13F filings submitted to the U.S. Securities and Exchange Commission (SEC), with the most recent received on 8/27/2026. New 13F filings are added each quarter as they're published.
From Our Partners